Situação meteorológica que não inspira cuidado.   -   Não há avisos

Nearby METAR Reports

 

LEZL - Sevilla, Spain
Distance from station: ENE 8km
Actualizado: 18/08/2017 21:30
Céu limpo
Céu limpo
 Vento de W
Vento: W 7 km/h
Temperatura: 34°C
Ponto de Orvalho: 12°C
Humidade: 26%
Barómetro: 1012 hPa
Resumo: Céu limpo
Visibility: greater than 10 km
2017/08/18 19:30 LEZL 181930Z 26004KT CAVOK 34/12 Q1012 NOSIG
LEMO - Morón, Spain
Distance from station: SE 43km
Actualizado: 18/08/2017 22:00
Céu limpo
Céu limpo
 Vento de SW
Vento: SW 13 km/h
Temperatura: 30°C
Índice de Calor: 30°C
Ponto de Orvalho: 16°C
Humidade: 43%
Barómetro: 1014 hPa
Resumo: Céu limpo
Visibility: greater than 10 km
2017/08/18 20:00 LEMO 182000Z 23007KT 200V270 CAVOK 30/16 Q1014 NOSIG
LEJR - Jeréz, Spain
Distance from station: S 71km
Actualizado: 18/08/2017 22:00
Céu limpo
Céu limpo
 Vento de W
Vento: W 9 km/h
Temperatura: 29°C
Índice de Calor: 29°C
Ponto de Orvalho: 18°C
Humidade: 51%
Barómetro: 1014 hPa
Resumo: Céu limpo
Visibility: greater than 10 km
2017/08/18 20:00 LEJR 182000Z 27005KT 240V320 CAVOK 29/18 Q1014
 
LERT - Rota, Spain
Distance from station: SSW 89km
Actualizado: 18/08/2017 22:00
Céu limpo
Céu limpo
 Vento de W
Vento: W 9 km/h
Temperatura: 25°C
Ponto de Orvalho: 22°C
Humidade: 83%
Barómetro: 1014 hPa
Resumo: Céu limpo
Visibility: greater than 10 km
2017/08/18 20:00 LERT 182000Z 27005KT CAVOK 25/22 Q1014 NOSIG
LEMG - Málaga, Spain
Distance from station: ESE 157km
Actualizado: 18/08/2017 22:00
Céu limpo
Céu limpo
 Vento de ESE
Vento: ESE 7 km/h
Temperatura: 25°C
Ponto de Orvalho: 21°C
Humidade: 79%
Barómetro: 1015 hPa
Resumo: Céu limpo
Visibility: greater than 10 km
2017/08/18 20:00 LEMG 182000Z 11004KT CAVOK 25/21 Q1015 NOSIG
LEBA - Córdoba, Spain
Distance from station: ENE 115km
Actualizado: 18/08/2017 22:00
Céu limpo
Céu limpo
 Vento de W
Vento: W 6 km/h
Temperatura: 32°C
Ponto de Orvalho: 13°C
Humidade: 31%
Barómetro: 1012 hPa
Clouds: Céu limpo
Visibility: 10 km
2017/08/18 20:00 LEBA 182000Z AUTO 26003KT 9999 NCD 32/13 Q1012
 
LEGR - Granada, Spain
Distance from station: E 198km
Actualizado: 18/08/2017 22:00
Céu limpo
Céu limpo
 Vento de SSW
Vento: SSW 9 km/h
Temperatura: 31°C
Ponto de Orvalho: 9°C
Humidade: 25%
Barómetro: 1017 hPa
Resumo: Céu limpo
Visibility: greater than 10 km
2017/08/18 20:00 LEGR 182000Z 21005KT CAVOK 31/09 Q1017
LEAM - Almería, Spain
Distance from station: E 326km
Actualizado: 18/08/2017 22:00
Céu limpo
Céu limpo
 Vento de varies
Vento: varies 4 km/h
Temperatura: 26°C
Ponto de Orvalho: 23°C
Humidade: 84%
Barómetro: 1014 hPa
Resumo: Céu limpo
Visibility: greater than 10 km
2017/08/18 20:00 LEAM 182000Z VRB02KT CAVOK 26/23 Q1014
LEMD - Madrid/Barajas, Spain
Distance from station: NNE 402km
Actualizado: 18/08/2017 22:00
Céu limpo
Céu limpo
 Vento de N
Vento: N 7 km/h
Temperatura: 31°C
Ponto de Orvalho: 6°C
Humidade: 21%
Barómetro: 1016 hPa
Resumo: Céu limpo
Visibility: greater than 10 km
2017/08/18 20:00 LEMD 182000Z 35004KT CAVOK 31/06 Q1016 NOSIG
 
LEVD - Valladolid, Spain
Distance from station: N 492km
Actualizado: 18/08/2017 21:30
Céu limpo
Céu limpo
 Vento de ENE
Vento: ENE 26 km/h
Temperatura: 24°C
Ponto de Orvalho: 12°C
Humidade: 47%
Barómetro: 1020 hPa
Resumo: Céu limpo
Visibility: greater than 10 km
2017/08/18 19:30 LEVD 181930Z 06014KT CAVOK 24/12 Q1020
LEBL - Barcelona, Spain
Distance from station: NE 816km
Actualizado: 18/08/2017 22:00
Few Clouds
Few Clouds
 Vento de varies
Vento: varies 4 km/h
Temperatura: 27°C
Índice de Calor: 31°C
Ponto de Orvalho: 24°C
Humidade: 84%
Barómetro: 1016 hPa
Clouds: Few Clouds
Visibility: 10 km
Cloud details: Few Clouds 1067 m
2017/08/18 20:00 LEBL 182000Z VRB02KT 9999 FEW035 27/24 Q1016 NOSIG
LEVC - Valencia, Spain
Distance from station: ENE 535km
Actualizado: 18/08/2017 22:00
Few Clouds
Few Clouds
 Vento de ENE
Vento: ENE 13 km/h
Temperatura: 28°C
Índice de Calor: 29°C
Ponto de Orvalho: 20°C
Humidade: 62%
Barómetro: 1015 hPa
Clouds: Few Clouds
Visibility: 10 km
Cloud details: Few Clouds 549 m
2017/08/18 20:00 LEVC 182000Z 06007KT 020V120 9999 FEW018 28/20 Q1015 NOSIG